Time;durP1;ratioP1;P1;durP2;ratioP2;P2;SDS_P1;SDS_P2;PMS_P1;PMS_P2;Temp;Humidity;BMP_temperature;BMP_pressure;BME280_temperature;BME280_humidity;BME280_pressure;Samples;Min_cycle;Max_cycle;Signal;HPM_P1;HPM_P2
2022/06/27 00:02:13;;;;;;;0.27;0.27;;;;;;;22.53;64.79;95011.31;4330157;32;20261;-51
2022/06/27 00:04:39;;;;;;;0.20;0.20;;;;;;;22.48;64.46;95008.97;4319169;32;20185;-46
2022/06/27 00:07:06;;;;;;;0.20;0.20;;;;;;;22.50;64.64;94998.53;4318297;32;20193;-48
2022/06/27 00:09:32;;;;;;;0.40;0.40;;;;;;;22.30;65.09;94991.84;4339008;32;20197;-47
2022/06/27 00:11:59;;;;;;;0.43;0.43;;;;;;;22.44;65.74;94983.06;4332112;32;20204;-48
2022/06/27 00:14:28;;;;;;;0.67;0.47;;;;;;;22.44;65.45;94974.97;4360852;32;20359;-50
2022/06/27 00:16:53;;;;;;;0.10;0.10;;;;;;;22.42;64.95;94978.03;4362083;32;20220;-47
2022/06/27 00:19:18;;;;;;;0.40;0.40;;;;;;;22.39;65.03;94978.78;4355503;32;20181;-49
2022/06/27 00:21:45;;;;;;;0.30;0.30;;;;;;;22.28;65.23;94976.00;4336238;32;20225;-48
2022/06/27 00:24:11;;;;;;;0.30;0.30;;;;;;;22.36;66.17;94968.72;4349275;32;20282;-47
2022/06/27 00:26:36;;;;;;;0.50;0.50;;;;;;;22.34;67.02;94976.44;4329029;32;20186;-47
2022/06/27 00:29:03;;;;;;;0.20;0.20;;;;;;;22.38;66.37;94971.06;4340711;32;20185;-48
2022/06/27 00:31:29;;;;;;;0.13;0.13;;;;;;;22.49;67.84;94988.09;4344245;32;20272;-46
2022/06/27 00:33:58;;;;;;;12.30;0.70;;;;;;;22.34;65.84;94984.53;4360821;32;20192;-48
2022/06/27 00:36:24;;;;;;;0.37;0.37;;;;;;;22.28;66.08;94980.63;4359798;32;20201;-45
2022/06/27 00:38:52;;;;;;;0.10;0.10;;;;;;;22.22;66.08;94990.25;4336526;32;20208;-49
2022/06/27 00:41:19;;;;;;;0.30;0.30;;;;;;;22.29;67.25;94990.28;4357167;32;20265;-45
2022/06/27 00:43:48;;;;;;;0.10;0.10;;;;;;;22.40;68.13;95007.38;4345208;32;20245;-50
2022/06/27 00:46:14;;;;;;;0.33;0.33;;;;;;;22.24;65.99;95001.44;4319655;32;20177;-46
2022/06/27 00:48:44;;;;;;;0.20;0.20;;;;;;;22.30;67.27;95016.19;4338082;32;20193;-48
2022/06/27 00:51:11;;;;;;;0.20;0.20;;;;;;;22.23;66.88;95018.84;4345298;32;20232;-48
2022/06/27 00:53:43;;;;;;;0.17;0.17;;;;;;;22.12;67.14;95015.28;4370081;32;20181;-51
2022/06/27 00:56:09;;;;;;;0.33;0.33;;;;;;;21.95;66.64;95030.94;4356040;32;20256;-49
2022/06/27 00:58:37;;;;;;;0.97;0.20;;;;;;;22.07;67.75;95029.13;4328312;32;20189;-48
2022/06/27 01:01:08;;;;;;;7.20;1.00;;;;;;;22.01;67.52;95028.72;4339510;32;20181;-51
2022/06/27 01:03:35;;;;;;;0.47;0.47;;;;;;;22.08;67.64;95023.34;4342830;32;20224;-47
2022/06/27 01:06:23;;;;;;;0.10;0.10;;;;;;;22.04;67.78;95021.75;4342085;32;20204;-47
2022/06/27 01:08:48;;;;;;;0.20;0.20;;;;;;;22.15;68.81;95044.25;4337759;32;20197;-47
2022/06/27 01:11:15;;;;;;;0.20;0.20;;;;;;;21.99;67.04;95033.69;4330995;32;20267;-46
2022/06/27 01:13:50;;;;;;;0.17;0.17;;;;;;;22.04;68.08;95021.75;4324664;32;21018;-50
2022/06/27 01:16:16;;;;;;;0.13;0.13;;;;;;;21.98;67.86;95023.25;4331325;32;20184;-50
2022/06/27 01:18:43;;;;;;;0.30;0.30;;;;;;;21.97;69.42;95027.09;4351834;32;20280;-46
2022/06/27 01:21:22;;;;;;;0.10;0.10;;;;;;;21.95;69.30;95035.56;4304442;32;20260;-49
2022/06/27 01:23:51;;;;;;;2.43;0.47;;;;;;;21.98;69.92;95040.22;4324634;32;20235;-50
2022/06/27 01:26:20;;;;;;;0.67;0.40;;;;;;;22.06;70.13;95041.06;4329783;32;20227;-47
2022/06/27 01:28:46;;;;;;;0.17;0.17;;;;;;;22.03;69.21;95036.44;4359077;32;20196;-48
2022/06/27 01:31:15;;;;;;;0.30;0.30;;;;;;;22.10;69.89;95039.97;4302904;32;20314;-47
2022/06/27 01:33:45;;;;;;;0.47;0.47;;;;;;;22.02;68.25;95043.00;4299524;32;20286;-48
2022/06/27 01:38:57;;;;;;;0.23;0.23;;;;;;;22.03;69.44;95041.84;4319243;32;20243;-46
2022/06/27 01:41:24;;;;;;;0.37;0.37;;;;;;;22.02;69.69;95046.47;4322474;32;20213;-48
2022/06/27 01:43:52;;;;;;;0.20;0.20;;;;;;;22.04;70.28;95041.44;4327313;32;20204;-50
2022/06/27 01:46:19;;;;;;;0.20;0.20;;;;;;;22.06;70.85;95035.66;4316387;32;20181;-48
2022/06/27 01:48:45;;;;;;;0.33;0.20;;;;;;;22.06;70.54;95043.78;4311495;33;20190;-46
2022/06/27 01:51:11;;;;;;;0.50;0.50;;;;;;;22.06;70.36;95041.06;4311098;32;20485;-46
2022/06/27 01:53:41;;;;;;;0.20;0.20;;;;;;;21.95;70.24;95033.63;4307092;32;20181;-47
2022/06/27 01:56:08;;;;;;;0.10;0.10;;;;;;;21.93;70.52;95032.47;4341238;32;20215;-46
2022/06/27 01:58:34;;;;;;;0.37;0.37;;;;;;;21.97;70.43;95037.91;4356255;32;20220;-50
2022/06/27 02:01:00;;;;;;;0.30;0.30;;;;;;;22.03;71.20;95031.78;4338283;32;20181;-48
2022/06/27 02:03:27;;;;;;;0.53;0.40;;;;;;;21.91;70.69;95038.22;4342151;32;20242;-50
2022/06/27 02:05:54;;;;;;;0.27;0.27;;;;;;;21.88;71.44;95036.28;4354847;32;20181;-47
2022/06/27 02:08:25;;;;;;;0.40;0.40;;;;;;;21.78;71.07;95036.97;4337782;32;20186;-46
2022/06/27 02:10:53;;;;;;;0.20;0.20;;;;;;;21.72;71.12;95041.13;4331715;32;20193;-59
2022/06/27 02:13:23;;;;;;;0.40;0.40;;;;;;;21.68;71.24;95053.81;4344264;32;20203;-48
2022/06/27 02:16:14;;;;;;;0.10;0.10;;;;;;;21.73;71.29;95047.31;4358839;32;20195;-47
2022/06/27 02:18:42;;;;;;;0.10;0.10;;;;;;;21.83;71.47;95060.13;4338724;32;20266;-49
2022/06/27 02:21:18;;;;;;;0.20;0.20;;;;;;;21.65;71.19;95068.06;4358900;32;20199;-50
2022/06/27 02:23:44;;;;;;;0.57;0.57;;;;;;;21.72;71.83;95054.63;4324432;32;20290;-50
2022/06/27 02:26:12;;;;;;;0.27;0.27;;;;;;;21.78;72.12;95066.66;4339651;32;20213;-47
2022/06/27 02:28:40;;;;;;;0.10;0.10;;;;;;;21.58;72.04;95060.69;4290639;32;20288;-46
2022/06/27 02:31:08;;;;;;;0.30;0.30;;;;;;;21.62;72.30;95074.19;4337039;32;20238;-50
2022/06/27 02:33:45;;;;;;;1.37;0.77;;;;;;;21.61;72.19;95069.97;4309725;32;20249;-48
2022/06/27 02:36:17;;;;;;;0.43;0.40;;;;;;;21.80;74.07;95185.94;4310940;32;20272;-46
2022/06/27 02:38:57;;;;;;;0.67;0.67;;;;;;;21.75;72.32;95194.34;4354254;32;20195;-49
2022/06/27 02:41:26;;;;;;;0.30;0.30;;;;;;;21.61;72.92;95211.12;4314804;32;20190;-49
2022/06/27 02:43:55;;;;;;;0.20;0.20;;;;;;;21.65;72.29;95156.41;4359040;32;20180;-50
2022/06/27 02:46:24;;;;;;;13.07;0.83;;;;;;;21.60;71.90;95201.50;4364811;32;20191;-50
2022/06/27 02:48:54;;;;;;;0.30;0.30;;;;;;;21.58;71.85;95167.91;4354424;32;20208;-48
2022/06/27 02:51:23;;;;;;;0.30;0.30;;;;;;;21.65;71.32;95191.50;4328150;32;20190;-48
2022/06/27 02:54:08;;;;;;;0.10;0.10;;;;;;;21.73;71.99;95188.53;4340542;32;20196;-51
2022/06/27 02:56:42;;;;;;;0.23;0.23;;;;;;;21.75;71.11;95150.34;4350446;32;20271;-49
2022/06/27 02:59:28;;;;;;;0.10;0.03;;;;;;;21.77;71.69;95154.25;4294538;32;20190;-47
2022/06/27 03:01:56;;;;;;;0.40;0.40;;;;;;;21.61;70.21;95188.78;4291070;32;20204;-49
2022/06/27 03:04:27;;;;;;;0.27;0.27;;;;;;;21.57;70.73;95204.16;4353132;32;20181;-48
2022/06/27 03:06:52;;;;;;;0.20;0.20;;;;;;;21.65;71.17;95213.87;4322455;32;20216;-50
2022/06/27 03:09:18;;;;;;;0.33;0.33;;;;;;;21.64;71.50;95209.63;4358441;32;20177;-51
2022/06/27 03:11:50;;;;;;;0.30;0.30;;;;;;;21.59;70.83;95218.06;4352490;32;20184;-51
2022/06/27 03:14:20;;;;;;;0.43;0.43;;;;;;;21.55;71.14;95214.53;4345054;32;20180;-51
2022/06/27 03:16:46;;;;;;;0.27;0.27;;;;;;;21.68;71.78;95210.44;4324781;32;20249;-51
2022/06/27 03:19:13;;;;;;;1.60;0.67;;;;;;;21.68;70.23;95210.44;4289872;33;20285;-49
2022/06/27 03:21:40;;;;;;;0.30;0.30;;;;;;;21.66;70.21;95201.16;4355747;32;20196;-50
2022/06/27 03:24:07;;;;;;;0.60;0.60;;;;;;;21.50;70.29;95204.06;4345270;32;20188;-50
2022/06/27 03:26:34;;;;;;;0.10;0.10;;;;;;;21.41;70.83;95190.81;4352848;32;20195;-49
2022/06/27 03:29:03;;;;;;;0.10;0.10;;;;;;;21.40;70.53;95194.69;4320917;32;20216;-51
2022/06/27 03:31:30;;;;;;;0.37;0.37;;;;;;;21.42;70.96;95191.59;4292651;32;20208;-48
2022/06/27 03:33:56;;;;;;;0.27;0.27;;;;;;;21.34;70.77;95201.53;4342036;32;20196;-47
2022/06/27 03:36:22;;;;;;;0.23;0.23;;;;;;;21.41;71.14;95206.22;4334571;32;20181;-46
2022/06/27 03:38:51;;;;;;;0.17;0.17;;;;;;;21.36;71.72;95217.38;4344602;32;20200;-58
2022/06/27 03:41:17;;;;;;;0.60;0.60;;;;;;;21.46;71.61;95205.91;4353981;32;20188;-46
2022/06/27 03:43:43;;;;;;;0.50;0.27;;;;;;;21.52;71.57;95212.56;4348773;32;20192;-46
2022/06/27 03:46:09;;;;;;;0.37;0.30;;;;;;;21.52;71.27;95221.44;4327283;32;20267;-46
2022/06/27 03:51:19;;;;;;;0.33;0.33;;;;;;;21.34;71.97;95223.13;4345720;32;20220;-48
2022/06/27 03:53:45;;;;;;;0.10;0.10;;;;;;;21.41;71.88;95230.53;4305943;32;20188;-45
2022/06/27 03:56:12;;;;;;;0.20;0.20;;;;;;;21.24;71.23;95229.91;4343228;32;20276;-45
2022/06/27 03:58:37;;;;;;;0.50;0.50;;;;;;;21.46;72.64;95235.63;4346168;32;20203;-45
2022/06/27 04:01:07;;;;;;;0.43;0.43;;;;;;;21.54;72.48;95231.88;4360077;32;20185;-47
2022/06/27 04:03:35;;;;;;;0.30;0.30;;;;;;;21.59;71.82;95239.66;4313195;32;20204;-49
2022/06/27 04:06:00;;;;;;;0.30;0.30;;;;;;;21.56;71.60;95246.56;4301125;32;20189;-47
2022/06/27 04:08:27;;;;;;;0.10;0.10;;;;;;;21.45;71.62;95240.22;4348665;32;20208;-46
2022/06/27 04:10:55;;;;;;;0.20;0.20;;;;;;;21.42;71.42;95245.56;4357002;32;20208;-45
2022/06/27 04:13:23;;;;;;;0.53;0.53;;;;;;;21.35;71.28;95237.41;4333312;32;20176;-46
2022/06/27 04:15:49;;;;;;;0.27;0.27;;;;;;;21.34;71.84;95243.94;4332768;32;20196;-48
2022/06/27 04:18:16;;;;;;;0.43;0.43;;;;;;;21.41;72.00;95244.78;4344937;32;20185;-50
2022/06/27 04:20:42;;;;;;;0.43;0.43;;;;;;;21.30;71.78;95245.78;4323220;32;20396;-47
2022/06/27 04:23:09;;;;;;;0.37;0.37;;;;;;;21.11;72.62;95247.44;4365124;32;20211;-48
2022/06/27 04:25:36;;;;;;;0.30;0.30;;;;;;;21.21;72.54;95251.44;4356817;32;20189;-48
2022/06/27 04:28:08;;;;;;;0.40;0.40;;;;;;;21.31;72.76;95255.44;4372530;32;20289;-48
2022/06/27 04:30:35;;;;;;;0.37;0.37;;;;;;;21.32;72.55;95254.31;4297470;32;20177;-46
2022/06/27 04:33:02;;;;;;;0.17;0.17;;;;;;;21.33;72.81;95256.66;4340625;32;20200;-50
2022/06/27 04:35:28;;;;;;;0.27;0.27;;;;;;;21.32;72.37;95252.41;4355831;32;20180;-50
2022/06/27 04:37:54;;;;;;;0.40;0.40;;;;;;;21.32;72.50;95246.22;4372529;32;20311;-59
2022/06/27 04:40:21;;;;;;;0.70;0.60;;;;;;;21.61;73.03;95248.19;4338337;32;20204;-47
2022/06/27 04:42:49;;;;;;;0.20;0.20;;;;;;;21.54;72.32;95245.37;4327034;32;20188;-47
2022/06/27 04:45:16;;;;;;;0.23;0.23;;;;;;;21.32;72.08;95243.53;4338379;32;20286;-47
2022/06/27 04:47:43;;;;;;;0.10;0.10;;;;;;;21.30;72.47;95256.59;4298687;32;20307;-46
2022/06/27 04:50:12;;;;;;;0.17;0.17;;;;;;;21.32;72.76;95254.31;4338315;32;20208;-46
2022/06/27 04:52:41;;;;;;;0.20;0.20;;;;;;;21.39;73.05;95247.09;4345684;32;20188;-47
2022/06/27 04:55:12;;;;;;;2.83;1.03;;;;;;;21.32;72.84;95243.53;4331282;32;20201;-47
2022/06/27 04:57:48;;;;;;;0.87;0.50;;;;;;;21.52;73.07;95248.44;4305391;32;20189;-50
2022/06/27 05:00:14;;;;;;;0.30;0.30;;;;;;;;;;4328833;32;20195;-51
2022/06/27 05:02:42;;;;;;;0.40;0.40;;;;;;;21.51;72.29;95259.59;4366018;32;20177;-49
2022/06/27 05:05:13;;;;;;;0.50;0.50;;;;;;;21.37;73.03;95249.38;4355807;32;20291;-46
2022/06/27 05:07:40;;;;;;;1.60;0.70;;;;;;;21.44;73.27;95254.88;4336164;32;20187;-48
2022/06/27 05:10:06;;;;;;;0.37;0.37;;;;;;;21.47;72.71;95254.16;4328524;32;20193;-47
2022/06/27 05:12:32;;;;;;;0.30;0.30;;;;;;;21.34;72.89;95263.59;4337271;32;20188;-49
2022/06/27 05:15:09;;;;;;;0.40;0.40;;;;;;;21.44;74.00;95262.19;4330490;32;20256;-49
2022/06/27 05:17:35;;;;;;;0.27;0.27;;;;;;;21.52;73.39;95271.97;4330803;32;20224;-47
2022/06/27 05:20:02;;;;;;;0.37;0.37;;;;;;;21.56;73.46;95272.78;4303245;32;20185;-48
2022/06/27 05:22:30;;;;;;;0.43;0.43;;;;;;;21.50;73.11;95272.31;4322406;32;20188;-45
2022/06/27 05:24:58;;;;;;;1.27;0.70;;;;;;;21.59;73.77;95293.69;4318503;32;20261;-46
2022/06/27 05:27:26;;;;;;;0.40;0.40;;;;;;;21.67;73.16;95289.13;4325600;32;20193;-46
2022/06/27 05:29:54;;;;;;;0.60;0.60;;;;;;;21.65;72.97;95286.78;4333148;32;20212;-51
2022/06/27 05:32:22;;;;;;;0.40;0.40;;;;;;;21.55;73.21;95287.44;4335561;32;20189;-49
2022/06/27 05:34:49;;;;;;;0.23;0.23;;;;;;;21.64;72.84;95282.53;4298428;32;20223;-48
2022/06/27 05:37:15;;;;;;;0.33;0.33;;;;;;;21.68;72.80;95275.25;4342835;32;20226;-46
2022/06/27 05:39:43;;;;;;;0.13;0.13;;;;;;;21.73;72.98;95277.66;4353121;32;20259;-47
2022/06/27 05:42:09;;;;;;;0.70;0.70;;;;;;;21.74;73.06;95271.12;4371394;32;20301;-48
2022/06/27 05:44:39;;;;;;;0.30;0.30;;;;;;;21.78;72.44;95276.56;4359168;32;20296;-48
2022/06/27 05:47:09;;;;;;;0.23;0.23;;;;;;;21.73;72.34;95280.34;4361113;32;20254;-47
2022/06/27 05:49:37;;;;;;;0.20;0.20;;;;;;;21.75;72.52;95280.78;4356393;32;20233;-48
2022/06/27 05:52:06;;;;;;;0.17;0.17;;;;;;;21.66;73.71;95282.94;4353264;32;20243;-48
2022/06/27 05:54:35;;;;;;;0.30;0.30;;;;;;;21.72;73.47;95278.81;4339098;32;20189;-46
2022/06/27 05:57:04;;;;;;;0.57;0.57;;;;;;;21.78;73.34;95290.84;4328716;32;20181;-47
2022/06/27 05:59:30;;;;;;;0.10;0.10;;;;;;;21.73;72.46;95288.47;4366202;32;20232;-46
2022/06/27 06:01:59;;;;;;;0.30;0.30;;;;;;;21.89;72.71;95290.97;4345539;32;20202;-46
2022/06/27 06:04:27;;;;;;;1.63;0.67;;;;;;;21.88;72.84;95278.62;4315221;32;20217;-50
2022/06/27 06:06:54;;;;;;;0.23;0.23;;;;;;;21.93;72.17;95275.59;4336602;32;20264;-50
2022/06/27 06:09:25;;;;;;;0.63;0.63;;;;;;;21.92;72.51;95271.34;4372042;32;20196;-48
2022/06/27 06:11:55;;;;;;;0.30;0.30;;;;;;;21.93;72.80;95272.91;4363019;32;20218;-50
2022/06/27 06:14:26;;;;;;;0.83;0.83;;;;;;;22.00;72.21;95277.63;4316845;32;20211;-49
2022/06/27 06:16:52;;;;;;;1.27;0.80;;;;;;;22.00;72.00;95274.91;4342019;32;20235;-47
2022/06/27 06:19:18;;;;;;;0.50;0.50;;;;;;;22.21;72.68;95272.50;4345192;32;20172;-49
2022/06/27 06:21:46;;;;;;;0.40;0.40;;;;;;;22.22;72.23;95276.75;4334870;32;20275;-48
2022/06/27 06:24:12;;;;;;;0.33;0.33;;;;;;;22.29;71.26;95271.41;4329045;32;20273;-49
2022/06/27 06:26:39;;;;;;;0.93;0.93;;;;;;;22.27;70.20;95268.31;4310701;32;20204;-46
2022/06/27 06:29:39;;;;;;;19.87;2.53;;;;;;;22.19;71.89;95261.28;4339917;32;20227;-47
2022/06/27 06:31:57;;;;;;;4.27;1.10;;;;;;;22.52;72.43;95268.59;4345977;32;20173;-48
2022/06/27 06:34:24;;;;;;;0.67;0.67;;;;;;;22.40;70.11;95275.03;4324691;32;20202;-45
2022/06/27 06:36:50;;;;;;;1.50;1.20;;;;;;;22.53;70.91;95275.53;4337155;32;20185;-45
2022/06/27 06:39:17;;;;;;;0.23;0.23;;;;;;;22.75;69.88;95279.25;4302732;32;20271;-45
2022/06/27 06:41:44;;;;;;;7.97;0.70;;;;;;;22.65;69.52;95271.81;4318555;32;20199;-46
2022/06/27 06:44:12;;;;;;;3.20;1.80;;;;;;;22.79;69.70;95264.62;4329957;32;20201;-49
2022/06/27 06:46:40;;;;;;;0.50;0.50;;;;;;;22.89;69.29;95260.44;4340691;32;20208;-44
2022/06/27 06:49:10;;;;;;;0.30;0.30;;;;;;;22.94;69.20;95262.81;4347023;32;20190;-50
2022/06/27 06:51:42;;;;;;;0.80;0.80;;;;;;;22.98;68.19;95252.81;4347033;32;20238;-47
2022/06/27 06:54:15;;;;;;;0.63;0.63;;;;;;;23.02;68.40;95250.13;4347162;32;20200;-45
2022/06/27 06:56:42;;;;;;;1.07;0.70;;;;;;;23.15;68.26;95240.56;4342832;32;20227;-47
2022/06/27 06:59:09;;;;;;;0.60;0.60;;;;;;;23.05;68.90;95247.47;4326441;32;20176;-46
2022/06/27 07:01:39;;;;;;;0.03;0.03;;;;;;;23.09;68.61;95240.13;4319607;32;20209;-47
2022/06/27 07:04:07;;;;;;;0.27;0.27;;;;;;;23.10;69.12;95241.69;4344908;32;20240;-45
2022/06/27 07:06:34;;;;;;;0.20;0.20;;;;;;;23.13;68.53;95232.81;4340668;32;20186;-45
2022/06/27 07:09:02;;;;;;;0.40;0.40;;;;;;;23.21;69.90;95239.06;4326538;32;20165;-45
2022/06/27 07:11:31;;;;;;;0.73;0.47;;;;;;;23.30;67.79;95253.81;4327108;32;20196;-47
2022/06/27 07:14:02;;;;;;;0.30;0.30;;;;;;;23.34;69.39;95255.78;4366172;32;20217;-45
2022/06/27 07:16:28;;;;;;;0.40;0.40;;;;;;;23.34;68.75;95253.06;4348041;32;20185;-44
2022/06/27 07:18:56;;;;;;;3.50;3.33;;;;;;;23.42;67.88;95250.03;4314579;32;20196;-46
2022/06/27 07:21:26;;;;;;;3.90;2.07;;;;;;;23.38;67.62;95249.25;4353104;32;20240;-50
2022/06/27 07:23:53;;;;;;;1.00;1.00;;;;;;;23.41;67.90;95251.19;4317395;32;20203;-47
2022/06/27 07:26:21;;;;;;;0.60;0.60;;;;;;;23.45;66.94;95241.16;4288834;32;20212;-45
2022/06/27 07:28:49;;;;;;;0.63;0.63;;;;;;;23.52;67.21;95235.81;4329214;32;20177;-48
2022/06/27 07:31:16;;;;;;;0.77;0.77;;;;;;;23.53;66.91;95231.94;4298853;32;20394;-45
2022/06/27 07:34:02;;;;;;;0.70;0.70;;;;;;;23.54;66.99;95238.13;4371600;32;20350;-48
2022/06/27 07:36:32;;;;;;;5.43;0.70;;;;;;;23.51;65.84;95230.75;4338447;32;20188;-47
2022/06/27 07:38:58;;;;;;;0.87;0.87;;;;;;;23.56;66.79;95235.84;4357352;32;20184;-47
2022/06/27 07:41:32;;;;;;;1.50;1.23;;;;;;;23.52;67.80;95237.75;4349249;32;20173;-52
2022/06/27 07:44:00;;;;;;;1.33;1.23;;;;;;;23.55;67.60;95231.56;4346352;32;20192;-50
2022/06/27 07:46:27;;;;;;;1.27;1.27;;;;;;;23.55;67.75;95239.69;4353652;32;20208;-47
2022/06/27 07:48:53;;;;;;;0.93;0.93;;;;;;;23.61;67.46;95246.31;4352705;32;20244;-48
2022/06/27 07:51:19;;;;;;;1.07;0.70;;;;;;;23.63;68.14;95249.44;4348302;32;20192;-48
2022/06/27 07:53:52;;;;;;;0.70;0.70;;;;;;;23.51;66.88;95236.16;4373435;32;20192;-49
2022/06/27 07:56:20;;;;;;;0.60;0.60;;;;;;;23.52;66.45;95245.87;4365313;32;20248;-48
2022/06/27 07:58:48;;;;;;;0.50;0.50;;;;;;;23.61;66.79;95238.19;4347239;32;20189;-50
2022/06/27 08:01:18;;;;;;;1.03;1.03;;;;;;;23.67;67.06;95241.31;4352155;32;20189;-48
2022/06/27 08:03:53;;;;;;;1.47;0.80;;;;;;;23.67;66.43;95238.63;4344197;32;20188;-52
2022/06/27 08:06:30;;;;;;;0.67;0.67;;;;;;;23.74;66.28;95244.84;4329714;32;20181;-48
2022/06/27 08:09:03;;;;;;;0.60;0.60;;;;;;;23.78;65.90;95240.22;4371366;32;20216;-49
2022/06/27 08:11:32;;;;;;;0.53;0.53;;;;;;;23.81;66.94;95239.47;4349455;32;20283;-45
2022/06/27 08:14:05;;;;;;;1.73;1.70;;;;;;;23.83;66.53;95239.84;4356948;32;20232;-47
2022/06/27 08:16:33;;;;;;;1.13;1.10;;;;;;;23.88;67.29;95241.44;4314878;32;20186;-50
2022/06/27 08:18:59;;;;;;;0.50;0.50;;;;;;;23.89;66.11;95243.75;4344100;32;20244;-44
2022/06/27 08:21:27;;;;;;;0.37;0.37;;;;;;;23.92;65.70;95247.63;4347991;32;20185;-43
2022/06/27 08:23:59;;;;;;;0.50;0.50;;;;;;;23.93;66.67;95246.47;4348873;32;20307;-47
2022/06/27 08:26:27;;;;;;;0.50;0.50;;;;;;;24.04;65.96;95246.53;4331163;32;20192;-46
2022/06/27 08:28:56;;;;;;;0.50;0.50;;;;;;;24.04;67.11;95249.25;4326786;32;20197;-46
2022/06/27 08:31:24;;;;;;;3.60;0.33;;;;;;;24.05;67.13;95239.94;4342644;32;20195;-44
2022/06/27 08:34:00;;;;;;;0.40;0.40;;;;;;;24.13;64.97;95236.87;4346616;32;20189;-46
2022/06/27 08:36:31;;;;;;;3.70;0.67;;;;;;;24.25;63.82;95243.91;4337300;32;20192;-46
2022/06/27 08:38:58;;;;;;;0.47;0.47;;;;;;;24.28;63.81;95241.22;4343818;32;20181;-46
2022/06/27 08:41:25;;;;;;;0.50;0.50;;;;;;;24.48;63.21;95246.31;4347658;32;20177;-48
2022/06/27 08:44:04;;;;;;;0.40;0.40;;;;;;;24.40;63.79;95240.09;4328143;32;20196;-48
2022/06/27 08:46:35;;;;;;;0.60;0.60;;;;;;;24.47;63.47;95237.41;4322822;32;20181;-47
2022/06/27 08:49:08;;;;;;;0.80;0.80;;;;;;;24.47;62.83;95240.13;4350456;32;20186;-44
2022/06/27 08:51:37;;;;;;;0.63;0.63;;;;;;;24.71;62.64;95227.75;4356809;32;20192;-47
2022/06/27 08:54:04;;;;;;;1.00;1.00;;;;;;;24.81;63.63;95231.63;4347321;32;20223;-45
2022/06/27 08:56:31;;;;;;;0.53;0.20;;;;;;;24.92;61.66;95224.28;4310146;33;20178;-49
2022/06/27 08:59:00;;;;;;;0.50;0.50;;;;;;;25.07;60.92;95236.72;4314879;32;20185;-46
2022/06/27 09:01:30;;;;;;;1.20;1.07;;;;;;;25.24;61.22;95235.91;4333369;32;20184;-49
2022/06/27 09:04:10;;;;;;;1.87;1.30;;;;;;;25.36;59.91;95237.44;4339409;32;20243;-47
2022/06/27 09:06:47;;;;;;;1.00;0.97;;;;;;;25.40;59.49;95232.78;4344516;32;20237;-46
2022/06/27 09:09:15;;;;;;;0.83;0.83;;;;;;;25.23;60.56;95241.75;4328574;32;20217;-47
2022/06/27 09:11:46;;;;;;;0.57;0.57;;;;;;;25.36;59.89;95236.69;4329483;32;20295;-46
2022/06/27 09:14:37;;;;;;;0.67;0.67;;;;;;;25.45;59.56;95232.41;4316882;32;20265;-48
2022/06/27 09:17:16;;;;;;;0.60;0.60;;;;;;;25.35;60.90;95230.50;4349132;32;20220;-48
2022/06/27 09:19:56;;;;;;;0.63;0.63;;;;;;;25.41;59.68;95225.41;4328269;32;20180;-49
2022/06/27 09:22:28;;;;;;;1.30;0.77;;;;;;;25.52;58.68;95223.47;4361020;32;20258;-45
2022/06/27 09:25:20;;;;;;;1.80;1.27;;;;;;;25.58;58.17;95224.59;4316844;32;20294;-46
2022/06/27 09:28:01;;;;;;;0.40;0.40;;;;;;;25.71;58.49;95214.91;4328214;32;20177;-49
2022/06/27 09:30:28;;;;;;;0.60;0.60;;;;;;;25.79;57.85;95213.69;4339236;32;20206;-51
2022/06/27 09:32:59;;;;;;;0.93;0.70;;;;;;;25.89;57.97;95210.19;4357167;32;20304;-50
2022/06/27 09:35:28;;;;;;;0.47;0.47;;;;;;;25.86;57.57;95216.41;4360563;32;20181;-49
2022/06/27 09:37:58;;;;;;;2.97;1.00;;;;;;;25.72;57.96;95210.25;4332027;32;20287;-48
2022/06/27 09:40:29;;;;;;;0.70;0.70;;;;;;;25.83;57.45;95206.31;4338752;32;20186;-45
2022/06/27 09:42:58;;;;;;;0.63;0.63;;;;;;;25.86;56.68;95208.25;4357849;32;20259;-48
2022/06/27 09:45:27;;;;;;;0.93;0.93;;;;;;;25.89;55.85;95204.75;4340578;32;20291;-48
2022/06/27 09:48:01;;;;;;;5.87;5.50;;;;;;;25.98;57.62;95205.06;4340209;32;20189;-49
2022/06/27 09:50:33;;;;;;;3.00;2.80;;;;;;;26.00;56.60;95202.75;4363747;32;20196;-49
2022/06/27 09:53:06;;;;;;;1.03;0.93;;;;;;;26.11;57.31;95199.97;4344309;32;20188;-48
2022/06/27 09:55:32;;;;;;;1.40;1.40;;;;;;;26.24;58.18;95200.28;4300466;32;20193;-48
2022/06/27 09:58:00;;;;;;;0.90;0.90;;;;;;;26.24;58.03;95203.00;4309997;32;20189;-48
2022/06/27 10:00:28;;;;;;;1.60;1.00;;;;;;;26.35;57.92;95201.06;4332074;32;21344;-46
2022/06/27 10:03:01;;;;;;;0.63;0.63;;;;;;;26.23;57.47;95201.47;4343569;32;20300;-48
2022/06/27 10:05:29;;;;;;;0.80;0.80;;;;;;;26.54;56.08;95200.53;4349462;32;20194;-46
2022/06/27 10:08:02;;;;;;;0.30;0.30;;;;;;;26.68;55.67;95205.09;4374568;32;20283;-46
2022/06/27 10:10:34;;;;;;;0.97;0.80;;;;;;;26.64;55.01;95207.06;4324820;32;20189;-46
2022/06/27 10:13:11;;;;;;;0.30;0.30;;;;;;;26.73;53.92;95206.63;4366807;32;20211;-47
2022/06/27 10:15:42;;;;;;;2.43;2.33;;;;;;;26.90;54.09;95201.06;4358936;32;20188;-50
2022/06/27 10:18:09;;;;;;;0.67;0.67;;;;;;;27.00;51.36;95194.78;4361584;32;20248;-47
2022/06/27 10:20:38;;;;;;;0.90;0.90;;;;;;;26.91;51.57;95193.66;4357850;32;20264;-46
2022/06/27 10:23:08;;;;;;;0.73;0.47;;;;;;;26.91;53.24;95196.38;4340066;32;20226;-48
2022/06/27 10:25:38;;;;;;;0.43;0.43;;;;;;;26.93;53.68;95202.97;4364034;32;20225;-58
2022/06/27 10:28:13;;;;;;;0.30;0.30;;;;;;;27.03;52.90;95198.63;4358837;32;20185;-59
2022/06/27 10:30:58;;;;;;;0.50;0.50;;;;;;;27.09;53.47;95190.81;4329972;32;20181;-49
2022/06/27 10:33:32;;;;;;;0.47;0.47;;;;;;;27.15;52.62;95192.72;4314656;32;20276;-50
2022/06/27 10:38:56;;;;;;;1.43;1.43;;;;;;;27.02;55.24;95197.09;4345529;32;20268;-49
2022/06/27 10:41:23;;;;;;;2.23;2.13;;;;;;;27.16;55.04;95201.66;4333170;32;20263;-50
2022/06/27 10:43:54;;;;;;;0.70;0.70;;;;;;;27.27;54.26;95192.19;4354155;32;20184;-51
2022/06/27 10:46:38;;;;;;;0.53;0.53;;;;;;;27.45;51.83;95192.00;4361015;32;20185;-50
2022/06/27 10:49:19;;;;;;;0.60;0.60;;;;;;;27.55;50.46;95191.13;4370808;32;20244;-55
2022/06/27 10:51:46;;;;;;;0.23;0.23;;;;;;;27.52;53.11;95196.63;4328334;32;20236;-46
2022/06/27 10:54:13;;;;;;;0.67;0.67;;;;;;;27.46;53.66;95198.25;4328424;32;20196;-48
2022/06/27 10:56:54;;;;;;;0.70;0.70;;;;;;;27.47;54.38;95207.97;4351334;32;20240;-46
2022/06/27 10:59:43;;;;;;;1.20;0.93;;;;;;;27.46;55.32;95199.00;4341624;32;20257;-47
2022/06/27 11:02:21;;;;;;;0.77;0.77;;;;;;;27.50;55.59;95188.06;4348419;32;20222;-47
2022/06/27 11:04:54;;;;;;;0.50;0.47;;;;;;;27.49;55.32;95187.31;4364674;32;20218;-46
2022/06/27 11:07:21;;;;;;;0.90;0.87;;;;;;;27.56;54.43;95198.16;4332236;32;20553;-47
2022/06/27 11:09:50;;;;;;;0.50;0.50;;;;;;;27.27;54.01;95191.41;4313928;32;20212;-46
2022/06/27 11:12:28;;;;;;;0.40;0.40;;;;;;;27.48;54.98;95195.88;4342047;32;20243;-49
2022/06/27 11:15:03;;;;;;;0.90;0.90;;;;;;;27.43;54.58;95188.94;4368400;32;20263;-47
2022/06/27 11:17:37;;;;;;;1.23;0.90;;;;;;;27.41;54.77;95190.53;4328342;32;20189;-48
2022/06/27 11:20:36;;;;;;;20.83;0.47;;;;;;;27.63;53.22;95202.78;4328736;32;20188;-46
2022/06/27 11:23:03;;;;;;;0.43;0.43;;;;;;;27.62;51.71;95193.06;4301814;33;20228;-48
2022/06/27 11:25:32;;;;;;;0.57;0.57;;;;;;;27.54;52.94;95194.28;4299882;32;20342;-47
2022/06/27 11:33:37;;;;;;;1.53;0.80;;;;;;;27.59;52.84;95210.22;4351319;32;20226;-50
2022/06/27 11:36:14;;;;;;;0.40;0.40;;;;;;;27.65;54.03;95211.31;4336533;32;20226;-46
2022/06/27 11:38:48;;;;;;;0.70;0.70;;;;;;;27.59;54.17;95205.53;4316568;32;20242;-45
2022/06/27 11:41:24;;;;;;;0.77;0.77;;;;;;;27.48;54.36;95201.34;4341060;32;20208;-47
2022/06/27 11:44:10;;;;;;;0.83;0.83;;;;;;;27.60;53.87;95204.38;4295525;32;20182;-49
2022/06/27 11:46:42;;;;;;;2.20;0.90;;;;;;;27.65;52.55;95205.84;4347854;32;20185;-48
2022/06/27 11:49:14;;;;;;;0.60;0.60;;;;;;;27.83;51.59;95206.44;4352982;32;20267;-51
2022/06/27 11:51:47;;;;;;;1.20;1.10;;;;;;;27.81;52.21;95205.31;4341646;32;20184;-47
2022/06/27 11:54:18;;;;;;;0.57;0.57;;;;;;;28.04;51.40;95213.59;4333292;32;20189;-45
2022/06/27 11:56:55;;;;;;;1.00;1.00;;;;;;;27.94;50.74;95209.81;4312232;32;20294;-45
2022/06/27 11:59:21;;;;;;;8.40;1.20;;;;;;;27.84;49.50;95208.00;4335674;32;20192;-45
2022/06/27 12:02:02;;;;;;;0.47;0.47;;;;;;;27.87;51.15;95207.16;4320910;32;20269;-49